MDT70 OBBI-OMDW
Flight info
| Callsign | MDT70 |
|---|---|
| Flight time | N/A |
| Altitude | 17000 |
| Route | BHR N697 SODAK P559 KIVUS G666 ELOVU |
| Aircraft | B58T/L-SABDFGRY/C |
Departure
| Time | 2026-05-01 13:20 |
|---|---|
| Airport | Bahrain International Airport (OBBI) |
Arrival
| Time | N/A |
|---|---|
| Airport | Al Maktoum International Airport (OMDW) |
| Time | Latitude | Longitude | Altitude | Speed | Heading |
|---|---|---|---|---|---|
| 2026-05-01 12:58 | 26.26351 | 50.63912 | 9 ft | 0 kts | 206° |
| 2026-05-01 13:11 | 26.26356 | 50.63915 | 9 ft | 4 kts | 206° |
| 2026-05-01 13:11 | 26.26380 | 50.63927 | 9 ft | 4 kts | 203° |
| 2026-05-01 13:12 | 26.26402 | 50.63937 | 9 ft | 3 kts | 197° |
| 2026-05-01 13:12 | 26.26418 | 50.63940 | 9 ft | 2 kts | 179° |
| 2026-05-01 13:12 | 26.26428 | 50.63936 | 9 ft | 2 kts | 137° |
| 2026-05-01 13:12 | 26.26432 | 50.63931 | 8 ft | 0 kts | 122° |
| 2026-05-01 13:14 | 26.26424 | 50.63945 | 8 ft | 6 kts | 122° |
| 2026-05-01 13:14 | 26.26417 | 50.63990 | 8 ft | 6 kts | 68° |
| 2026-05-01 13:14 | 26.26440 | 50.64021 | 8 ft | 4 kts | 44° |
| 2026-05-01 13:15 | 26.26464 | 50.64044 | 7 ft | 4 kts | 59° |
| 2026-05-01 13:15 | 26.26460 | 50.64085 | 7 ft | 7 kts | 115° |
| 2026-05-01 13:15 | 26.26434 | 50.64136 | 7 ft | 8 kts | 123° |
| 2026-05-01 13:15 | 26.26403 | 50.64190 | 7 ft | 10 kts | 123° |
| 2026-05-01 13:16 | 26.26362 | 50.64261 | 7 ft | 12 kts | 123° |
| 2026-05-01 13:16 | 26.26310 | 50.64350 | 6 ft | 14 kts | 123° |
| 2026-05-01 13:16 | 26.26257 | 50.64441 | 6 ft | 14 kts | 123° |
| 2026-05-01 13:17 | 26.26107 | 50.64704 | 7 ft | 16 kts | 122° |
| 2026-05-01 13:17 | 26.26052 | 50.64802 | 8 ft | 14 kts | 123° |
| 2026-05-01 13:18 | 26.26041 | 50.64959 | 9 ft | 9 kts | 46° |
| 2026-05-01 13:18 | 26.26088 | 50.64997 | 10 ft | 9 kts | 28° |
| 2026-05-01 13:18 | 26.26138 | 50.64997 | 11 ft | 7 kts | 320° |
| 2026-05-01 13:18 | 26.26161 | 50.64963 | 10 ft | 4 kts | 303° |
| 2026-05-01 13:19 | 26.26195 | 50.64904 | 10 ft | 30 kts | 302° |
| 2026-05-01 13:19 | 26.26470 | 50.64430 | 17 ft | 105 kts | 304° |
| 2026-05-01 13:19 | 26.27599 | 50.63767 | 472 ft | 140 kts | 21° |
| 2026-05-01 13:20 | 26.28736 | 50.64622 | 883 ft | 153 kts | 33° |
| 2026-05-01 13:20 | 26.29329 | 50.65086 | 1093 ft | 156 kts | 32° |
| 2026-05-01 13:20 | 26.30194 | 50.65796 | 1404 ft | 157 kts | 33° |
| 2026-05-01 13:21 | 26.31983 | 50.67218 | 1999 ft | 158 kts | 32° |
| 2026-05-01 13:21 | 26.32890 | 50.67927 | 2294 ft | 160 kts | 35° |
| 2026-05-01 13:21 | 26.33751 | 50.68722 | 2580 ft | 162 kts | 39° |
| 2026-05-01 13:21 | 26.34606 | 50.69533 | 2869 ft | 159 kts | 37° |
| 2026-05-01 13:22 | 26.35457 | 50.70318 | 3155 ft | 158 kts | 37° |
| 2026-05-01 13:22 | 26.36308 | 50.71097 | 3430 ft | 159 kts | 37° |
| 2026-05-01 13:22 | 26.37164 | 50.71884 | 3719 ft | 160 kts | 37° |
| 2026-05-01 13:22 | 26.38030 | 50.72677 | 4005 ft | 162 kts | 37° |
| 2026-05-01 13:23 | 26.38900 | 50.73477 | 4291 ft | 163 kts | 37° |
| 2026-05-01 13:23 | 26.39777 | 50.74282 | 4583 ft | 164 kts | 37° |
| 2026-05-01 13:23 | 26.40662 | 50.75094 | 4868 ft | 165 kts | 36° |
| 2026-05-01 13:23 | 26.41560 | 50.75917 | 5152 ft | 168 kts | 36° |
| 2026-05-01 13:24 | 26.42471 | 50.76753 | 5434 ft | 171 kts | 36° |
| 2026-05-01 13:24 | 26.43387 | 50.77595 | 5727 ft | 174 kts | 35° |
| 2026-05-01 13:24 | 26.44331 | 50.78462 | 6016 ft | 177 kts | 34° |
| 2026-05-01 13:25 | 26.46282 | 50.80255 | 6511 ft | 186 kts | 34° |
| 2026-05-01 13:25 | 26.47288 | 50.81181 | 6745 ft | 189 kts | 34° |
| 2026-05-01 13:25 | 26.48310 | 50.82121 | 6983 ft | 191 kts | 34° |
| 2026-05-01 13:25 | 26.49342 | 50.83070 | 7221 ft | 194 kts | 34° |
| 2026-05-01 13:26 | 26.50388 | 50.84033 | 7457 ft | 196 kts | 34° |
| 2026-05-01 13:26 | 26.51448 | 50.85008 | 7664 ft | 200 kts | 34° |
| 2026-05-01 13:26 | 26.52528 | 50.86002 | 7859 ft | 202 kts | 34° |
| 2026-05-01 13:26 | 26.53620 | 50.87007 | 8055 ft | 204 kts | 33° |
| 2026-05-01 13:27 | 26.54714 | 50.88016 | 8254 ft | 204 kts | 33° |
| 2026-05-01 13:27 | 26.55811 | 50.89027 | 8441 ft | 205 kts | 33° |
| 2026-05-01 13:27 | 26.58022 | 50.91065 | 8839 ft | 207 kts | 33° |
| 2026-05-01 13:28 | 26.60258 | 50.93126 | 9238 ft | 209 kts | 33° |
| 2026-05-01 13:28 | 26.61385 | 50.94168 | 9429 ft | 211 kts | 33° |
| 2026-05-01 13:29 | 26.63657 | 50.96260 | 9826 ft | 212 kts | 33° |
| 2026-05-01 13:29 | 26.65938 | 50.98367 | 10197 ft | 214 kts | 33° |
| 2026-05-01 13:30 | 26.70546 | 51.02626 | 10955 ft | 217 kts | 32° |
| 2026-05-01 13:31 | 26.72879 | 51.04783 | 11339 ft | 218 kts | 32° |
| 2026-05-01 13:31 | 26.76362 | 51.08096 | 11909 ft | 225 kts | 45° |
| 2026-05-01 13:32 | 26.76876 | 51.11488 | 12291 ft | 229 kts | 111° |
| 2026-05-01 13:33 | 26.75257 | 51.16521 | 12835 ft | 232 kts | 114° |
| 2026-05-01 13:33 | 26.74159 | 51.19949 | 13141 ft | 235 kts | 114° |